Time;durP1;ratioP1;P1;durP2;ratioP2;P2;SDS_P1;SDS_P2;PMS_P1;PMS_P2;Temp;Humidity;BMP_temperature;BMP_pressure;BME280_temperature;BME280_humidity;BME280_pressure;Samples;Min_cycle;Max_cycle;Signal;HPM_P1;HPM_P2
2021/07/22 00:02:28;;;;;;;23.52;14.15;;;538.30;2406.40;;;;;;4957627;29;20035;-82
2021/07/22 00:04:55;;;;;;;19.70;13.38;;;538.40;2406.40;;;;;;4940410;29;20122;-81
2021/07/22 00:07:21;;;;;;;22.20;13.75;;;538.20;2406.40;;;;;;4940007;29;20071;-82
2021/07/22 00:09:46;;;;;;;20.33;13.38;;;538.00;2406.40;;;;;;4940116;29;20059;-82
2021/07/22 00:12:12;;;;;;;18.50;12.57;;;538.00;2406.40;;;;;;4939351;29;20590;-82
2021/07/22 00:14:40;;;;;;;19.00;12.05;;;538.10;2406.40;;;;;;4939420;29;20089;-81
2021/07/22 00:17:06;;;;;;;18.35;11.80;;;538.20;2406.40;;;;;;4940104;29;20063;-82
2021/07/22 00:19:32;;;;;;;19.90;12.07;;;538.00;2406.40;;;;;;4939939;29;20027;-81
2021/07/22 00:21:58;;;;;;;20.02;11.48;;;538.00;2406.40;;;;;;4939595;29;20488;-82
2021/07/22 00:24:28;;;;;;;19.25;11.27;;;538.00;2406.40;;;;;;4940016;29;20038;-81
2021/07/22 00:26:55;;;;;;;17.88;10.75;;;537.60;2406.40;;;;;;4939852;29;20027;-82
2021/07/22 00:29:21;;;;;;;15.32;10.75;;;537.90;2406.40;;;;;;4956495;29;20030;-82
2021/07/22 00:31:47;;;;;;;24.63;16.35;;;538.10;2406.40;;;;;;4939463;29;20047;-81
2021/07/22 00:34:14;;;;;;;17.52;12.95;;;538.10;2406.40;;;;;;4939580;29;20028;-81
2021/07/22 00:36:39;;;;;;;16.65;12.75;;;537.60;2406.40;;;;;;4939403;29;20110;-82
2021/07/22 00:39:06;;;;;;;16.65;11.07;;;;;;;;;;4956854;29;20055;-82
2021/07/22 00:41:38;;;;;;;15.98;11.00;;;512.90;2380.80;;;;;;4939380;29;20083;-82
2021/07/22 00:44:04;;;;;;;14.63;11.20;;;512.70;2380.80;;;;;;4939738;29;20131;-80
2021/07/22 00:46:30;;;;;;;18.02;10.90;;;512.70;2380.80;;;;;;4939469;29;20106;-80
2021/07/22 00:48:56;;;;;;;16.27;11.43;;;512.80;2380.80;;;;;;4939150;29;20055;-81
2021/07/22 00:51:21;;;;;;;19.67;11.70;;;512.90;2380.80;;;;;;4939411;29;20027;-82
2021/07/22 00:53:47;;;;;;;19.83;11.30;;;512.70;2380.80;;;;;;4939323;29;20051;-83
2021/07/22 00:56:13;;;;;;;16.10;10.63;;;512.30;2380.80;;;;;;4939253;29;20130;-82
2021/07/22 00:58:39;;;;;;;19.05;11.07;;;512.50;2380.80;;;;;;4939535;29;20032;-82
2021/07/22 01:01:04;;;;;;;16.95;11.52;;;512.60;2380.80;;;;;;4939094;29;20182;-82
2021/07/22 01:03:30;;;;;;;17.88;10.98;;;512.50;2380.80;;;;;;4938966;29;20024;-82
2021/07/22 01:05:56;;;;;;;15.70;10.80;;;512.60;2380.80;;;;;;4939066;29;20031;-82
2021/07/22 01:08:22;;;;;;;19.13;11.15;;;512.50;2380.80;;;;;;4938973;29;20031;-81
2021/07/22 01:10:48;;;;;;;22.42;12.77;;;512.40;2380.80;;;;;;4938777;29;20030;-83
2021/07/22 01:13:13;;;;;;;22.40;13.93;;;512.30;2380.80;;;;;;4938932;29;20031;-81
2021/07/22 01:15:39;;;;;;;22.40;13.85;;;512.30;2380.80;;;;;;4938876;29;20031;-82
2021/07/22 01:18:05;;;;;;;23.85;13.82;;;512.20;2380.80;;;;;;4938664;29;20114;-81
2021/07/22 01:20:31;;;;;;;18.35;11.88;;;512.40;2380.80;;;;;;4938818;29;20038;-82
2021/07/22 01:22:57;;;;;;;22.23;12.73;;;512.60;2380.80;;;;;;4956018;29;20038;-82
2021/07/22 01:25:24;;;;;;;17.35;11.88;;;512.30;2380.80;;;;;;4955725;29;20031;-82
2021/07/22 01:27:51;;;;;;;16.10;11.35;;;512.30;2380.80;;;;;;4938802;29;20035;-82
2021/07/22 01:30:17;;;;;;;20.90;11.77;;;512.50;2380.80;;;;;;4938619;28;20046;-82
2021/07/22 01:32:44;;;;;;;19.67;11.15;;;512.50;2380.80;;;;;;4938666;29;20028;-82
2021/07/22 01:35:12;;;;;;;16.92;11.10;;;512.00;2380.80;;;;;;4938787;29;20039;-81
2021/07/22 01:37:39;;;;;;;23.75;11.80;;;512.40;2380.80;;;;;;4938605;29;20085;-78
2021/07/22 01:40:05;;;;;;;16.38;10.80;;;512.30;2380.80;;;;;;4938624;29;20034;-83
2021/07/22 01:42:31;;;;;;;13.82;10.30;;;512.40;2380.80;;;;;;4938567;29;20031;-80
2021/07/22 01:44:57;;;;;;;21.15;10.68;;;512.50;2380.80;;;;;;4938355;29;20046;-81
2021/07/22 01:47:23;;;;;;;13.57;9.40;;;512.60;2380.80;;;;;;4938503;29;20027;-81
2021/07/22 01:49:49;;;;;;;19.15;11.73;;;512.60;2380.80;;;;;;4955453;29;20039;-82
2021/07/22 01:52:15;;;;;;;16.92;10.20;;;512.50;2380.80;;;;;;4938367;29;20062;-82
2021/07/22 01:54:41;;;;;;;18.70;10.88;;;512.50;2380.80;;;;;;4955325;29;20114;-82
2021/07/22 01:57:07;;;;;;;14.55;10.35;;;512.70;2380.80;;;;;;4938241;29;20035;-81
2021/07/22 01:59:35;;;;;;;16.95;10.57;;;512.60;2380.80;;;;;;4938388;29;20024;-80
2021/07/22 02:02:06;;;;;;;16.05;11.50;;;512.60;2380.80;;;;;;4938365;29;20027;-82
2021/07/22 02:04:33;;;;;;;17.75;11.30;;;512.30;2380.80;;;;;;4938524;29;20038;-82
2021/07/22 02:06:59;;;;;;;19.80;11.85;;;512.10;2380.80;;;;;;4955188;29;20031;-81
2021/07/22 02:09:26;;;;;;;17.40;11.65;;;512.10;2380.80;;;;;;4955486;29;20038;-82
2021/07/22 02:11:53;;;;;;;19.23;12.85;;;512.20;2380.80;;;;;;4938337;29;20101;-82
2021/07/22 02:14:19;;;;;;;18.38;12.52;;;512.30;2380.80;;;;;;4938256;29;20067;-80
2021/07/22 02:16:45;;;;;;;21.98;12.55;;;;;;;;;;4955705;29;20082;-82
2021/07/22 02:19:11;;;;;;;20.80;12.27;;;487.30;2380.80;;;;;;4937971;29;20111;-81
2021/07/22 02:21:38;;;;;;;21.85;12.00;;;512.00;2380.80;;;;;;4937900;29;20051;-81
2021/07/22 02:24:04;;;;;;;20.77;12.35;;;487.30;2380.80;;;;;;4938303;29;20066;-81
2021/07/22 02:26:31;;;;;;;18.95;13.15;;;512.00;2380.80;;;;;;4955436;29;20038;-83
2021/07/22 02:28:56;;;;;;;19.48;11.85;;;487.30;2380.80;;;;;;4937753;29;20027;-82
2021/07/22 02:31:22;;;;;;;19.45;11.85;;;487.30;2380.80;;;;;;4937154;29;20051;-82
2021/07/22 02:33:48;;;;;;;20.15;12.60;;;512.00;2380.80;;;;;;4937260;29;20031;-81
2021/07/22 02:36:14;;;;;;;17.92;12.00;;;487.20;2380.80;;;;;;4939635;29;20063;-82
2021/07/22 02:38:39;;;;;;;19.25;11.63;;;487.00;2380.80;;;;;;4942032;29;20032;-82
2021/07/22 02:41:05;;;;;;;19.17;11.82;;;487.10;2380.80;;;;;;4941508;29;20027;-82
2021/07/22 02:43:32;;;;;;;17.63;13.02;;;487.10;2380.80;;;;;;4941392;29;20023;-80
2021/07/22 02:45:58;;;;;;;19.30;11.75;;;487.20;2380.80;;;;;;4941239;29;20087;-82
2021/07/22 02:48:24;;;;;;;18.45;12.02;;;487.30;2380.80;;;;;;4940811;29;20027;-83
2021/07/22 02:50:49;;;;;;;18.08;12.43;;;487.30;2380.80;;;;;;4941160;29;20031;-81
2021/07/22 02:53:15;;;;;;;18.98;12.43;;;487.20;2380.80;;;;;;4941374;29;20551;-82
2021/07/22 02:55:41;;;;;;;16.40;11.88;;;487.20;2380.80;;;;;;4941306;29;20070;-81
2021/07/22 02:58:07;;;;;;;15.70;11.50;;;487.20;2380.80;;;;;;4958426;29;20033;-83
2021/07/22 03:00:33;;;;;;;20.90;12.10;;;487.10;2380.80;;;;;;4940956;29;20054;-82
2021/07/22 03:03:02;;;;;;;16.00;11.68;;;487.00;2380.80;;;;;;4940685;29;20027;-80
2021/07/22 03:05:31;;;;;;;15.85;11.02;;;487.20;2380.80;;;;;;4958221;29;20379;-81
2021/07/22 03:07:59;;;;;;;18.92;11.80;;;487.10;2380.80;;;;;;4940916;29;20366;-81
2021/07/22 03:10:25;;;;;;;18.40;11.65;;;486.90;2380.80;;;;;;4941110;29;20452;-81
2021/07/22 03:12:53;;;;;;;19.17;12.02;;;486.90;2380.80;;;;;;4958306;29;20107;-81
2021/07/22 03:15:19;;;;;;;17.98;11.75;;;487.00;2380.80;;;;;;4940498;29;20039;-82
2021/07/22 03:17:44;;;;;;;16.92;11.38;;;486.80;2380.80;;;;;;4940461;29;20386;-82
2021/07/22 03:20:11;;;;;;;17.98;11.77;;;487.00;2380.80;;;;;;4940751;29;20059;-81
2021/07/22 03:22:38;;;;;;;14.75;11.07;;;487.00;2380.80;;;;;;4940906;29;20023;-81
2021/07/22 03:25:04;;;;;;;18.52;11.35;;;486.70;2380.80;;;;;;4941107;29;20469;-82
2021/07/22 03:27:30;;;;;;;18.02;11.63;;;486.80;2380.80;;;;;;4941037;29;20032;-82
2021/07/22 03:29:55;;;;;;;19.15;11.55;;;487.00;2380.80;;;;;;4940830;29;20038;-82
2021/07/22 03:32:21;;;;;;;20.80;11.50;;;487.10;2380.80;;;;;;4940551;29;20556;-82
2021/07/22 03:34:47;;;;;;;16.33;11.77;;;486.90;2380.80;;;;;;4940761;29;20031;-82
2021/07/22 03:37:14;;;;;;;19.05;12.35;;;486.80;2380.80;;;;;;4940773;29;20114;-81
2021/07/22 03:39:40;;;;;;;17.65;11.93;;;486.50;2380.80;;;;;;4940946;29;20481;-83
2021/07/22 03:42:06;;;;;;;18.65;12.50;;;486.80;2380.80;;;;;;4940745;29;20028;-82
2021/07/22 03:44:32;;;;;;;17.55;11.88;;;486.80;2380.80;;;;;;4940564;29;20038;-81
2021/07/22 03:46:58;;;;;;;14.73;11.20;;;486.70;2380.80;;;;;;4939661;29;20377;-81
2021/07/22 03:49:24;;;;;;;17.95;12.10;;;486.90;2380.80;;;;;;4940486;29;20059;-82
2021/07/22 03:51:54;;;;;;;14.70;11.50;;;486.80;2380.80;;;;;;4940434;29;20023;-82
2021/07/22 03:54:20;;;;;;;19.35;11.65;;;487.00;2380.80;;;;;;4957312;29;20536;-81
2021/07/22 03:56:46;;;;;;;17.25;12.57;;;486.90;2380.80;;;;;;4940589;29;20077;-81
2021/07/22 03:59:14;;;;;;;14.63;12.00;;;486.70;2380.80;;;;;;4940114;29;20465;-81
2021/07/22 04:01:40;;;;;;;16.80;11.43;;;486.50;2380.80;;;;;;4948114;28;20049;-82
2021/07/22 04:04:05;;;;;;;16.98;12.88;;;486.60;2380.80;;;;;;4954282;28;20468;-83
2021/07/22 04:06:35;;;;;;;20.25;13.15;;;486.80;2380.80;;;;;;4959207;28;20030;-82
2021/07/22 04:09:02;;;;;;;17.25;11.80;;;486.80;2380.80;;;;;;4959439;28;20531;-81
2021/07/22 04:11:28;;;;;;;16.83;11.50;;;487.00;2380.80;;;;;;4959398;28;20084;-82
2021/07/22 04:13:53;;;;;;;20.52;13.05;;;486.80;2380.80;;;;;;4941020;29;20066;-82
2021/07/22 04:16:19;;;;;;;19.58;12.13;;;486.90;2380.80;;;;;;4940158;29;20031;-82
2021/07/22 04:18:45;;;;;;;20.50;11.55;;;487.00;2380.80;;;;;;4939907;29;20074;-83
2021/07/22 04:21:11;;;;;;;17.95;11.82;;;486.90;2380.80;;;;;;4940158;29;20059;-81
2021/07/22 04:23:36;;;;;;;21.38;12.70;;;487.10;2380.80;;;;;;4939943;29;20503;-82
2021/07/22 04:26:02;;;;;;;19.83;12.73;;;487.10;2380.80;;;;;;4939563;29;20093;-81
2021/07/22 04:28:28;;;;;;;17.95;12.43;;;487.10;2380.80;;;;;;4957115;29;20034;-81
2021/07/22 04:30:54;;;;;;;20.25;13.52;;;486.90;2380.80;;;;;;4947468;28;20047;-82
2021/07/22 04:33:19;;;;;;;22.50;13.43;;;487.00;2380.80;;;;;;4958841;28;20037;-81
2021/07/22 04:35:46;;;;;;;22.02;13.68;;;486.80;2380.80;;;;;;4958773;28;20042;-82
2021/07/22 04:38:12;;;;;;;19.17;13.85;;;487.00;2380.80;;;;;;4958893;28;20026;-82
2021/07/22 04:40:38;;;;;;;18.40;12.88;;;487.00;2380.80;;;;;;4964592;28;20028;-81
2021/07/22 04:43:04;;;;;;;21.08;12.50;;;487.00;2380.80;;;;;;4939473;29;20059;-84
2021/07/22 04:45:29;;;;;;;24.10;13.23;;;486.90;2380.80;;;;;;4939571;29;20082;-82
2021/07/22 04:47:55;;;;;;;19.67;12.88;;;487.10;2380.80;;;;;;4939389;29;20043;-81
2021/07/22 04:50:21;;;;;;;22.77;12.50;;;486.90;2380.80;;;;;;4939467;29;20046;-83
2021/07/22 04:52:47;;;;;;;22.65;14.23;;;486.90;2380.80;;;;;;4939435;29;20034;-81
2021/07/22 04:55:13;;;;;;;22.45;14.07;;;487.00;2380.80;;;;;;4938478;29;20041;-81
2021/07/22 04:57:39;;;;;;;21.83;13.00;;;486.90;2380.80;;;;;;4938469;29;20034;-81
2021/07/22 05:00:06;;;;;;;22.83;14.88;;;487.10;2380.80;;;;;;4938514;29;20035;-81
2021/07/22 05:02:31;;;;;;;22.30;13.63;;;487.20;2380.80;;;;;;4938294;29;20385;-80
2021/07/22 05:04:57;;;;;;;24.85;14.43;;;487.30;2380.80;;;;;;4938793;29;20027;-82
2021/07/22 05:07:23;;;;;;;25.33;13.98;;;512.20;2380.80;;;;;;4955920;29;20535;-80
2021/07/22 05:09:49;;;;;;;23.52;13.15;;;512.20;2380.80;;;;;;4938731;29;20449;-80
2021/07/22 05:12:15;;;;;;;22.13;13.63;;;512.30;2380.80;;;;;;4939118;29;20122;-80
2021/07/22 05:14:41;;;;;;;23.52;14.23;;;512.50;2380.80;;;;;;4955477;29;20393;-79
2021/07/22 05:17:06;;;;;;;21.10;12.70;;;512.50;2380.80;;;;;;4939034;29;20485;-80
2021/07/22 05:19:32;;;;;;;15.68;12.32;;;512.60;2380.80;;;;;;4955903;29;20055;-81
2021/07/22 05:21:58;;;;;;;23.05;12.73;;;512.60;2380.80;;;;;;4938225;29;20034;-79
2021/07/22 05:24:24;;;;;;;20.65;12.02;;;512.60;2380.80;;;;;;4938703;29;20114;-80
2021/07/22 05:26:50;;;;;;;21.17;12.68;;;512.60;2380.80;;;;;;4956256;29;20373;-80
2021/07/22 05:29:16;;;;;;;20.25;12.32;;;512.60;2380.80;;;;;;4955663;29;20153;-80
2021/07/22 05:31:43;;;;;;;16.58;11.40;;;512.70;2380.80;;;;;;4938312;29;20409;-80
2021/07/22 05:34:10;;;;;;;23.00;12.88;;;512.90;2380.80;;;;;;4938659;29;20381;-80
2021/07/22 05:36:36;;;;;;;23.30;12.85;;;512.80;2380.80;;;;;;4938255;29;20081;-79
2021/07/22 05:39:03;;;;;;;24.48;13.63;;;512.70;2380.80;;;;;;4938669;29;20047;-79
2021/07/22 05:41:29;;;;;;;20.83;12.32;;;512.80;2380.80;;;;;;4938473;29;20031;-81
2021/07/22 05:43:55;;;;;;;20.42;12.27;;;512.90;2380.80;;;;;;4938255;29;20038;-80
2021/07/22 05:46:21;;;;;;;18.27;12.85;;;537.60;2406.40;;;;;;4938518;29;20031;-80
2021/07/22 05:48:48;;;;;;;26.95;12.27;;;537.90;2406.40;;;;;;4938408;29;20034;-80
2021/07/22 05:51:14;;;;;;;18.88;10.93;;;538.00;2406.40;;;;;;4938188;29;20445;-79
2021/07/22 05:53:39;;;;;;;16.65;10.52;;;538.00;2406.40;;;;;;4938399;29;20144;-80
2021/07/22 05:56:05;;;;;;;16.52;9.85;;;538.20;2406.40;;;;;;4955517;29;20043;-81
2021/07/22 05:58:31;;;;;;;14.10;10.10;;;538.30;2406.40;;;;;;4937984;29;20380;-80
2021/07/22 06:00:58;;;;;;;16.27;9.82;;;538.50;2406.40;;;;;;4938509;29;20081;-80
2021/07/22 06:03:24;;;;;;;11.70;9.18;;;563.20;2432.00;;;;;;4938389;29;20034;-80
2021/07/22 06:05:50;;;;;;;16.67;8.50;;;563.20;2432.00;;;;;;4938036;29;20038;-80
2021/07/22 06:08:16;;;;;;;12.13;8.20;;;563.40;2432.00;;;;;;4938341;29;20035;-79
2021/07/22 06:10:42;;;;;;;11.38;7.95;;;563.50;2432.00;;;;;;4956407;28;20023;-80
2021/07/22 06:13:08;;;;;;;11.60;9.10;;;563.60;2432.00;;;;;;4942302;29;20143;-80
2021/07/22 06:15:34;;;;;;;13.82;7.75;;;563.60;2432.00;;;;;;4942049;29;20105;-81
2021/07/22 06:17:59;;;;;;;11.00;7.88;;;563.80;2432.00;;;;;;4941766;29;20039;-80
2021/07/22 06:20:25;;;;;;;11.07;7.07;;;563.80;2432.00;;;;;;4942045;29;20034;-80
2021/07/22 06:22:51;;;;;;;9.48;6.82;;;563.80;2432.00;;;;;;4941945;29;20035;-79
2021/07/22 06:25:17;;;;;;;12.43;6.90;;;563.90;2432.00;;;;;;4941605;29;20031;-79
2021/07/22 06:27:44;;;;;;;11.95;7.43;;;564.00;2432.00;;;;;;4941832;29;20030;-79
2021/07/22 06:30:11;;;;;;;12.90;7.55;;;564.00;2432.00;;;;;;4941940;29;20031;-81
2021/07/22 06:32:37;;;;;;;9.95;7.00;;;588.80;2432.00;;;;;;4941426;29;20047;-80
2021/07/22 06:35:04;;;;;;;10.20;6.60;;;588.90;2432.00;;;;;;4941797;29;20488;-80
2021/07/22 06:37:46;;;;;;;11.75;6.70;;;589.00;2432.00;;;;;;4941648;29;20027;-79
2021/07/22 06:40:13;;;;;;;11.90;6.38;;;589.00;2432.00;;;;;;4941511;29;20536;-79
2021/07/22 06:42:38;;;;;;;9.13;6.72;;;589.10;2432.00;;;;;;4941731;29;20062;-79
2021/07/22 06:45:05;;;;;;;11.88;8.32;;;589.20;2432.00;;;;;;4941650;29;20067;-79
2021/07/22 06:47:30;;;;;;;12.35;6.85;;;589.20;2432.00;;;;;;4941328;29;20038;-79
2021/07/22 06:49:56;;;;;;;9.27;7.03;;;589.40;2432.00;;;;;;4941594;29;20035;-79
2021/07/22 06:52:22;;;;;;;10.65;6.90;;;589.50;2432.00;;;;;;4941509;29;20035;-80
2021/07/22 06:54:48;;;;;;;8.45;5.75;;;589.60;2432.00;;;;;;4941001;29;20484;-79
2021/07/22 06:57:13;;;;;;;8.57;6.25;;;589.70;2432.00;;;;;;4941477;29;20046;-78
2021/07/22 06:59:39;;;;;;;8.32;5.60;;;589.60;2432.00;;;;;;4940987;29;20492;-80
2021/07/22 07:02:05;;;;;;;9.45;6.07;;;614.40;2432.00;;;;;;4941418;29;20043;-81
2021/07/22 07:04:31;;;;;;;12.18;6.90;;;614.50;2432.00;;;;;;4958257;29;20031;-79
2021/07/22 07:06:57;;;;;;;10.40;6.05;;;614.60;2432.00;;;;;;4941059;29;20058;-80
2021/07/22 07:09:22;;;;;;;8.55;6.28;;;614.60;2432.00;;;;;;4958113;29;20474;-79
2021/07/22 07:11:50;;;;;;;8.95;6.10;;;614.40;2432.00;;;;;;4941064;29;20063;-80
2021/07/22 07:14:17;;;;;;;7.65;6.07;;;614.40;2432.00;;;;;;4957470;29;20358;-82
2021/07/22 07:16:43;;;;;;;11.57;6.35;;;614.70;2432.00;;;;;;4940776;29;20029;-80
2021/07/22 07:19:12;;;;;;;14.38;9.20;;;614.80;2432.00;;;;;;4940870;29;20028;-81
2021/07/22 07:21:39;;;;;;;9.55;7.00;;;;;;;;;;4940534;29;20370;-80
2021/07/22 07:24:05;;;;;;;7.68;5.43;;;614.70;2432.00;;;;;;4940973;29;20055;-79
2021/07/22 07:26:35;;;;;;;7.43;5.22;;;614.70;2432.00;;;;;;4958322;29;20067;-79
2021/07/22 07:29:08;;;;;;;8.05;4.80;;;614.60;2432.00;;;;;;4940373;29;20035;-81
2021/07/22 07:31:38;;;;;;;8.40;5.00;;;589.70;2432.00;;;;;;4940592;29;20450;-79
2021/07/22 07:34:07;;;;;;;10.85;5.20;;;614.80;2432.00;;;;;;4924845;29;20062;-81
2021/07/22 07:36:41;;;;;;;10.07;5.63;;;614.70;2432.00;;;;;;4957343;29;20485;-81
2021/07/22 07:39:08;;;;;;;10.93;5.90;;;614.70;2432.00;;;;;;4940285;29;20039;-81
2021/07/22 07:41:34;;;;;;;8.10;5.38;;;614.60;2432.00;;;;;;4940548;29;20144;-81
2021/07/22 07:44:00;;;;;;;11.30;5.97;;;589.70;2432.00;;;;;;4940422;29;20124;-81
2021/07/22 07:46:25;;;;;;;9.10;5.28;;;614.90;2432.00;;;;;;4939870;29;20031;-81
2021/07/22 07:48:51;;;;;;;13.98;6.20;;;615.00;2432.00;;;;;;4940049;29;20030;-82
2021/07/22 07:51:17;;;;;;;6.70;4.80;;;615.30;2432.00;;;;;;4957286;29;20031;-80
2021/07/22 07:53:43;;;;;;;7.65;5.28;;;615.20;2432.00;;;;;;4940570;29;20070;-80
2021/07/22 07:56:09;;;;;;;7.53;4.93;;;640.10;2432.00;;;;;;4940012;29;20062;-80
2021/07/22 07:58:35;;;;;;;6.28;4.65;;;;;;;;;;4940364;29;20035;-81
2021/07/22 08:01:01;;;;;;;9.07;5.15;;;640.20;2432.00;;;;;;4940441;29;20023;-81
2021/07/22 08:03:27;;;;;;;7.70;4.30;;;640.20;2432.00;;;;;;4940021;29;20038;-80
2021/07/22 08:05:53;;;;;;;7.47;5.10;;;640.40;2432.00;;;;;;4940197;29;20032;-81
2021/07/22 08:08:19;;;;;;;11.13;6.10;;;640.60;2432.00;;;;;;4957869;29;20465;-80
2021/07/22 08:10:45;;;;;;;10.18;5.20;;;640.90;2432.00;;;;;;4940037;29;20063;-82
2021/07/22 08:13:12;;;;;;;7.47;4.85;;;665.70;2432.00;;;;;;4940189;29;20027;-81
2021/07/22 08:15:41;;;;;;;6.50;5.10;;;665.80;2432.00;;;;;;4939973;29;20115;-80
2021/07/22 08:18:10;;;;;;;6.10;4.15;;;665.90;2432.00;;;;;;4939760;29;20031;-81
2021/07/22 08:20:40;;;;;;;8.25;5.53;;;665.90;2432.00;;;;;;4940140;29;20544;-81
2021/07/22 08:23:06;;;;;;;9.23;5.20;;;665.90;2432.00;;;;;;4924156;29;20039;-82
2021/07/22 08:25:32;;;;;;;17.77;5.80;;;666.20;2432.00;;;;;;4939327;29;20039;-83
2021/07/22 08:27:58;;;;;;;10.32;5.32;;;666.50;2432.00;;;;;;4939659;29;20027;-80
2021/07/22 08:30:24;;;;;;;7.50;4.95;;;691.20;2432.00;;;;;;4939410;28;20019;-80
2021/07/22 08:32:49;;;;;;;6.45;3.92;;;691.20;2406.40;;;;;;4939497;28;20130;-78
2021/07/22 08:35:15;;;;;;;8.35;5.55;;;691.20;2380.80;;;;;;4939409;29;20047;-78
2021/07/22 08:37:43;;;;;;;6.82;5.00;;;691.20;2380.80;;;;;;4939425;29;20027;-79
2021/07/22 08:40:10;;;;;;;7.60;5.07;;;666.40;2380.80;;;;;;4939653;29;20122;-81
2021/07/22 08:42:40;;;;;;;6.70;4.82;;;666.50;2380.80;;;;;;4939483;29;20044;-80
2021/07/22 08:45:07;;;;;;;6.70;4.57;;;666.50;2380.80;;;;;;4939154;29;20039;-80
2021/07/22 08:47:35;;;;;;;9.07;4.80;;;691.20;2380.80;;;;;;4939549;29;20027;-80
2021/07/22 08:50:01;;;;;;;7.22;4.53;;;691.20;2406.40;;;;;;4956328;29;20512;-80
2021/07/22 08:52:27;;;;;;;6.65;4.55;;;666.40;2380.80;;;;;;4939099;29;20023;-82
2021/07/22 08:54:53;;;;;;;8.77;4.78;;;666.10;2380.80;;;;;;4939279;29;20027;-80
2021/07/22 08:57:24;;;;;;;12.85;5.40;;;665.90;2432.00;;;;;;4939165;29;20122;-81
2021/07/22 08:59:50;;;;;;;6.50;4.22;;;665.90;2432.00;;;;;;4939412;29;20077;-81
2021/07/22 09:02:19;;;;;;;7.40;4.93;;;666.00;2380.80;;;;;;4956482;29;20504;-79
2021/07/22 09:04:59;;;;;;;6.03;3.85;;;666.50;2380.80;;;;;;4939241;29;20507;-79
2021/07/22 09:07:26;;;;;;;6.43;4.25;;;691.20;2329.60;;;;;;4938996;29;20118;-82
2021/07/22 09:10:06;;;;;;;7.03;4.45;;;691.20;2355.20;;;;;;4939130;29;20110;-80
2021/07/22 09:12:36;;;;;;;8.00;5.00;;;691.50;2304.00;;;;;;4939114;29;20050;-79
2021/07/22 09:15:03;;;;;;;9.38;5.18;;;691.70;2304.00;;;;;;4938997;29;20174;-79
2021/07/22 09:17:29;;;;;;;8.82;6.22;;;691.80;2278.40;;;;;;4939093;29;20031;-80
2021/07/22 09:19:55;;;;;;;5.53;4.35;;;716.80;2304.00;;;;;;4939057;29;20031;-81
2021/07/22 09:22:36;;;;;;;8.52;4.10;;;716.90;2278.40;;;;;;4939198;29;20075;-82
2021/07/22 09:25:03;;;;;;;8.10;5.03;;;716.90;2252.80;;;;;;4939779;29;20122;-81
2021/07/22 09:27:41;;;;;;;8.30;4.38;;;716.90;2227.20;;;;;;4939829;29;20027;-80
2021/07/22 09:30:10;;;;;;;7.40;4.50;;;692.00;2176.00;;;;;;4939374;29;20042;-81
2021/07/22 09:32:38;;;;;;;6.80;4.00;;;691.70;2201.60;;;;;;4939557;29;20145;-80
2021/07/22 09:35:15;;;;;;;8.27;4.40;;;716.80;2227.20;;;;;;4938610;29;20539;-81
2021/07/22 09:37:45;;;;;;;11.82;5.70;;;717.30;2150.40;;;;;;4956441;29;20035;-82
2021/07/22 09:40:24;;;;;;;9.30;5.28;;;717.40;2176.00;;;;;;4938921;29;20023;-81
2021/07/22 09:42:50;;;;;;;7.28;4.18;;;742.40;2124.80;;;;;;4938444;29;20110;-81
2021/07/22 09:45:21;;;;;;;8.73;4.78;;;742.40;2073.60;;;;;;4937874;29;20500;-81
2021/07/22 09:47:47;;;;;;;9.50;4.97;;;742.50;2073.60;;;;;;4938261;29;20027;-79
2021/07/22 09:50:15;;;;;;;11.05;6.18;;;717.70;1996.80;;;;;;4938794;29;20035;-78
2021/07/22 09:52:42;;;;;;;15.77;5.32;;;742.50;2073.60;;;;;;4938437;29;20038;-80
2021/07/22 09:55:31;;;;;;;16.65;5.65;;;742.50;2048.00;;;;;;4938103;29;20158;-79
2021/07/22 09:58:02;;;;;;;7.18;4.78;;;742.40;2099.20;;;;;;4938370;29;20038;-78
2021/07/22 10:00:30;;;;;;;8.65;4.47;;;742.50;2099.20;;;;;;4955634;29;20079;-78
2021/07/22 10:02:59;;;;;;;7.20;4.82;;;742.70;2048.00;;;;;;4937969;29;20031;-79
2021/07/22 10:05:31;;;;;;;7.30;4.75;;;742.60;2022.40;;;;;;4938236;29;20512;-78
2021/07/22 10:07:58;;;;;;;6.72;4.28;;;742.50;2073.60;;;;;;4938140;29;20429;-81
2021/07/22 10:10:26;;;;;;;5.75;4.40;;;742.80;2022.40;;;;;;4936687;29;20032;-77
2021/07/22 10:12:56;;;;;;;5.30;3.70;;;743.00;2022.40;;;;;;4937776;29;20031;-81
2021/07/22 10:15:26;;;;;;;5.93;3.90;;;743.10;1971.20;;;;;;4938202;29;20035;-79
2021/07/22 10:17:55;;;;;;;9.20;4.80;;;743.30;1945.60;;;;;;4938229;29;20066;-80
2021/07/22 10:20:23;;;;;;;11.20;4.72;;;768.10;1894.40;;;;;;4938239;29;20032;-80
2021/07/22 10:22:49;;;;;;;9.60;6.68;;;768.40;1894.40;;;;;;4938012;29;20031;-82
2021/07/22 10:25:16;;;;;;;5.65;4.28;;;768.50;1920.00;;;;;;4938200;29;20027;-81
2021/07/22 10:27:43;;;;;;;5.22;3.85;;;768.70;1843.20;;;;;;4938272;29;20085;-81
2021/07/22 10:30:11;;;;;;;6.57;4.00;;;768.60;1843.20;;;;;;4954975;29;20097;-80
2021/07/22 10:32:40;;;;;;;7.07;3.45;;;768.70;1843.20;;;;;;4955421;29;20126;-81
2021/07/22 10:35:07;;;;;;;6.63;4.05;;;768.80;1766.40;;;;;;4938083;29;20035;-80
2021/07/22 10:37:33;;;;;;;5.15;3.30;;;768.50;1766.40;;;;;;4937734;29;20058;-81
2021/07/22 10:40:08;;;;;;;7.57;4.32;;;743.30;1766.40;;;;;;4938185;29;20027;-82
2021/07/22 10:42:42;;;;;;;5.82;4.00;;;768.40;1792.00;;;;;;4938045;29;20381;-80
2021/07/22 10:45:21;;;;;;;6.90;4.25;;;768.80;1792.00;;;;;;4937710;29;20477;-78
2021/07/22 10:47:59;;;;;;;6.75;3.55;;;793.70;1792.00;;;;;;4937976;29;20039;-80
2021/07/22 10:50:42;;;;;;;6.75;3.40;;;794.00;1740.80;;;;;;4937813;29;20091;-79
2021/07/22 10:53:08;;;;;;;6.78;4.65;;;794.00;1740.80;;;;;;4938007;29;20081;-80
2021/07/22 10:55:40;;;;;;;6.68;4.05;;;794.00;1766.40;;;;;;4937966;29;20038;-79
2021/07/22 10:58:24;;;;;;;;;;;793.90;1766.40;;;;;;4941239;29;20046;-82
2021/07/22 11:00:50;;;;;;;7.13;3.95;;;793.60;1792.00;;;;;;4958731;29;19913;-80
2021/07/22 11:03:35;;;;;;;7.03;4.45;;;794.00;1766.40;;;;;;4941553;29;20031;-80
2021/07/22 11:06:08;;;;;;;7.88;3.85;;;794.00;1715.20;;;;;;4941220;29;20086;-80
2021/07/22 11:08:37;;;;;;;5.53;3.65;;;793.80;1689.60;;;;;;4958211;29;20120;-81
2021/07/22 11:11:10;;;;;;;8.00;3.42;;;793.90;1638.40;;;;;;4941281;29;20377;-82
2021/07/22 11:13:36;;;;;;;5.25;3.60;;;794.00;1715.20;;;;;;4940954;29;20029;-81
2021/07/22 11:16:48;;;;;;;4.85;3.70;;;793.60;1715.20;;;;;;4941145;29;20385;-81
2021/07/22 11:19:14;;;;;;;6.65;4.07;;;768.60;1715.20;;;;;;4953973;29;20071;-81
2021/07/22 11:21:48;;;;;;;5.75;3.83;;;743.30;1740.80;;;;;;4941121;29;20429;-80
2021/07/22 11:24:18;;;;;;;8.05;3.60;;;768.40;1664.00;;;;;;4941193;29;20031;-82
2021/07/22 11:26:48;;;;;;;7.05;4.22;;;768.10;1664.00;;;;;;4940593;29;20031;-80
2021/07/22 11:29:15;;;;;;;5.88;3.55;;;768.10;1638.40;;;;;;4941138;29;20035;-82
2021/07/22 11:31:43;;;;;;;8.88;4.30;;;743.30;1740.80;;;;;;4940777;29;20138;-81
2021/07/22 11:34:09;;;;;;;6.20;4.07;;;768.80;1740.80;;;;;;4957716;29;20035;-79
2021/07/22 11:36:35;;;;;;;4.50;3.28;;;793.80;1766.40;;;;;;4940761;29;20035;-80
2021/07/22 11:39:02;;;;;;;5.22;3.67;;;794.20;1689.60;;;;;;4958079;29;20031;-80
2021/07/22 11:41:28;;;;;;;5.88;3.92;;;794.20;1638.40;;;;;;4940308;29;20078;-80
2021/07/22 11:43:56;;;;;;;6.63;3.30;;;794.40;1664.00;;;;;;4957912;29;20027;-80
2021/07/22 11:46:38;;;;;;;5.72;3.80;;;794.50;1638.40;;;;;;4940686;29;20042;-80
2021/07/22 11:49:15;;;;;;;5.20;3.63;;;819.40;1664.00;;;;;;4940614;29;20031;-80
2021/07/22 11:51:50;;;;;;;7.07;3.80;;;819.60;1638.40;;;;;;4940388;29;20023;-80
2021/07/22 11:54:20;;;;;;;8.38;4.47;;;819.80;1612.80;;;;;;4940241;29;20130;-80
2021/07/22 11:56:50;;;;;;;6.47;3.65;;;819.80;1587.20;;;;;;4940428;29;20043;-81
2021/07/22 11:59:16;;;;;;;7.35;3.80;;;819.80;1612.80;;;;;;4940616;29;20032;-81
2021/07/22 12:01:53;;;;;;;4.03;2.92;;;820.00;1561.60;;;;;;4940269;29;20489;-80
2021/07/22 12:04:26;;;;;;;5.88;3.55;;;819.60;1561.60;;;;;;4939860;29;20114;-79
2021/07/22 12:06:53;;;;;;;4.65;3.17;;;793.80;1561.60;;;;;;4940472;29;20492;-78
2021/07/22 12:09:19;;;;;;;5.45;3.20;;;793.70;1587.20;;;;;;4938863;29;20077;-76
2021/07/22 12:11:50;;;;;;;5.72;3.90;;;768.90;1612.80;;;;;;4939935;29;20487;-77